Time;durP1;ratioP1;P1;durP2;ratioP2;P2;SDS_P1;SDS_P2;PMS_P1;PMS_P2;Temp;Humidity;BMP_temperature;BMP_pressure;BME280_temperature;BME280_humidity;BME280_pressure;Samples;Min_cycle;Max_cycle;Signal;HPM_P1;HPM_P2
2023/04/07 00:00:49;;;;;;;18.80;15.80;;;10.00;99.90;;;;;;5039369;28;20053;-42
2023/04/07 00:03:15;;;;;;;20.15;16.50;;;10.00;99.90;;;;;;5039972;28;20566;-43
2023/04/07 00:05:40;;;;;;;17.65;15.23;;;10.00;99.90;;;;;;5039770;28;20020;-43
2023/04/07 00:08:06;;;;;;;17.77;14.07;;;10.00;99.90;;;;;;5039148;28;20037;-43
2023/04/07 00:10:32;;;;;;;18.55;14.90;;;10.00;99.90;;;;;;5039011;28;20013;-44
2023/04/07 00:12:57;;;;;;;15.38;13.10;;;10.00;99.90;;;;;;5040090;28;20421;-44
2023/04/07 00:15:23;;;;;;;19.20;14.25;;;10.00;99.90;;;;;;5040051;28;20041;-44
2023/04/07 00:17:48;;;;;;;18.08;13.65;;;10.00;99.90;;;;;;5038841;28;20582;-44
2023/04/07 00:20:14;;;;;;;17.05;13.68;;;10.00;99.90;;;;;;5040191;28;20033;-43
2023/04/07 00:22:39;;;;;;;17.15;12.30;;;10.00;99.90;;;;;;5039279;28;20613;-43
2023/04/07 00:25:05;;;;;;;16.08;12.52;;;10.00;99.90;;;;;;5039376;28;20025;-43
2023/04/07 00:27:34;;;;;;;15.85;12.35;;;10.00;99.90;;;;;;5043191;28;20025;-43
2023/04/07 00:30:00;;;;;;;13.43;11.90;;;10.00;99.90;;;;;;5042414;28;20029;-42
2023/04/07 00:32:25;;;;;;;16.27;11.82;;;10.10;99.90;;;;;;5042048;28;20025;-43
2023/04/07 00:34:51;;;;;;;16.23;12.90;;;10.10;99.90;;;;;;5043150;28;20040;-43
2023/04/07 00:37:18;;;;;;;14.60;11.23;;;10.00;99.90;;;;;;5043079;28;20476;-43
2023/04/07 00:39:43;;;;;;;14.90;11.43;;;10.00;99.90;;;;;;5042801;28;20059;-43
2023/04/07 00:42:09;;;;;;;13.00;10.90;;;10.00;99.90;;;;;;5042768;28;20124;-43
2023/04/07 00:44:35;;;;;;;17.73;12.70;;;10.00;99.90;;;;;;5043207;28;20029;-43
2023/04/07 00:47:01;;;;;;;17.73;13.35;;;10.00;99.90;;;;;;5041369;28;20066;-43
2023/04/07 00:49:30;;;;;;;13.15;11.32;;;10.00;99.90;;;;;;5043326;28;20082;-44
2023/04/07 00:51:57;;;;;;;11.73;10.43;;;10.00;99.90;;;;;;5043082;28;20021;-43
2023/04/07 00:54:23;;;;;;;15.85;12.43;;;9.90;99.90;;;;;;5041820;28;20102;-43
2023/04/07 00:56:49;;;;;;;14.50;12.20;;;9.90;99.90;;;;;;5042731;28;20017;-43
2023/04/07 00:59:15;;;;;;;16.20;13.35;;;9.90;99.90;;;;;;5042427;28;20499;-43
2023/04/07 01:02:14;;;;;;;14.32;10.98;;;9.80;99.90;;;;;;5041621;28;20033;-43
2023/04/07 01:05:14;;;;;;;13.18;10.50;;;9.80;99.90;;;;;;5032010;28;20029;-43
2023/04/07 01:08:04;;;;;;;12.00;9.82;;;9.80;99.90;;;;;;5041630;28;20794;-43
2023/04/07 01:10:42;;;;;;;11.07;9.30;;;9.80;99.90;;;;;;5042116;28;20033;-43
2023/04/07 01:13:17;;;;;;;13.30;9.75;;;9.80;99.90;;;;;;5042388;28;20108;-42
2023/04/07 01:15:48;;;;;;;14.55;10.65;;;9.80;99.90;;;;;;5042152;28;20055;-43
2023/04/07 01:18:21;;;;;;;11.82;9.40;;;9.80;99.90;;;;;;5042082;28;20032;-43
2023/04/07 01:20:49;;;;;;;12.55;9.13;;;9.80;99.90;;;;;;5041459;28;20033;-43
2023/04/07 01:23:24;;;;;;;11.57;8.23;;;9.70;99.90;;;;;;5042101;28;20035;-43
2023/04/07 01:26:17;;;;;;;11.88;9.70;;;9.80;99.90;;;;;;5042866;28;20104;-42
2023/04/07 01:28:42;;;;;;;10.93;8.15;;;9.70;99.90;;;;;;5041897;28;20059;-43
2023/04/07 01:31:10;;;;;;;10.43;7.90;;;9.70;99.90;;;;;;5041695;28;20465;-43
2023/04/07 01:33:37;;;;;;;13.38;10.93;;;9.70;99.90;;;;;;5042015;28;20028;-44
2023/04/07 01:36:05;;;;;;;15.25;10.10;;;9.60;99.90;;;;;;5041370;28;20068;-43
2023/04/07 01:38:32;;;;;;;17.23;12.00;;;9.60;99.90;;;;;;5041906;28;20025;-44
2023/04/07 01:40:58;;;;;;;16.50;11.18;;;9.60;99.90;;;;;;5041953;28;20028;-44
2023/04/07 01:43:26;;;;;;;16.88;11.05;;;9.50;99.90;;;;;;5040501;28;20463;-43
2023/04/07 01:45:53;;;;;;;14.02;9.75;;;9.50;99.90;;;;;;5042169;28;20013;-43
2023/04/07 01:48:20;;;;;;;11.23;8.98;;;9.50;99.90;;;;;;5041626;28;20079;-43
2023/04/07 01:50:46;;;;;;;9.55;7.70;;;9.50;99.90;;;;;;5040567;28;20059;-43
2023/04/07 01:53:14;;;;;;;11.35;8.73;;;9.50;99.90;;;;;;5041980;28;20425;-43
2023/04/07 01:55:41;;;;;;;11.75;8.55;;;9.50;99.90;;;;;;5040608;28;20064;-43
2023/04/07 01:58:07;;;;;;;12.25;8.90;;;9.50;99.90;;;;;;5042041;28;20033;-44
2023/04/07 02:00:33;;;;;;;12.85;8.80;;;9.60;99.90;;;;;;5041735;28;20320;-43
2023/04/07 02:03:19;;;;;;;10.90;8.15;;;9.50;99.90;;;;;;5041693;28;20021;-43
2023/04/07 02:05:48;;;;;;;12.60;8.43;;;9.60;99.90;;;;;;5041174;28;20814;-43
2023/04/07 02:08:16;;;;;;;14.20;8.52;;;9.60;99.90;;;;;;5041334;28;20094;-44
2023/04/07 02:10:45;;;;;;;12.88;9.27;;;9.60;99.90;;;;;;5040998;28;20104;-43
2023/04/07 02:13:15;;;;;;;11.70;8.20;;;9.60;99.90;;;;;;5041169;28;20099;-43
2023/04/07 02:15:43;;;;;;;10.57;8.27;;;9.60;99.90;;;;;;5041662;28;20036;-43
2023/04/07 02:18:11;;;;;;;13.82;10.07;;;9.60;99.90;;;;;;5040384;28;20025;-42
2023/04/07 02:20:38;;;;;;;13.85;9.60;;;9.50;99.90;;;;;;5040645;28;20718;-43
2023/04/07 02:23:09;;;;;;;15.25;10.38;;;9.50;99.90;;;;;;5041157;28;20040;-43
2023/04/07 02:25:37;;;;;;;12.95;9.73;;;9.50;99.90;;;;;;5040809;28;20024;-41
2023/04/07 02:28:03;;;;;;;14.77;10.70;;;9.50;99.90;;;;;;5041623;28;20021;-43
2023/04/07 02:30:30;;;;;;;13.95;9.88;;;9.50;99.90;;;;;;5040611;28;20111;-43
2023/04/07 02:32:56;;;;;;;13.13;9.68;;;9.50;99.90;;;;;;5040614;28;20112;-43
2023/04/07 02:35:21;;;;;;;12.30;8.60;;;9.50;99.90;;;;;;5040888;28;20029;-44
2023/04/07 02:37:47;;;;;;;12.20;9.27;;;9.50;99.90;;;;;;5040510;28;20043;-43
2023/04/07 02:40:13;;;;;;;11.30;7.80;;;9.50;99.90;;;;;;5041251;28;20036;-43
2023/04/07 02:42:39;;;;;;;15.77;10.35;;;9.50;99.90;;;;;;5040896;28;20024;-43
2023/04/07 02:45:07;;;;;;;12.80;8.77;;;9.50;99.90;;;;;;5040000;28;20029;-42
2023/04/07 02:47:33;;;;;;;10.90;7.90;;;9.50;99.90;;;;;;5040651;28;20488;-43
2023/04/07 02:49:59;;;;;;;13.77;9.13;;;9.50;99.90;;;;;;5041335;28;20070;-42
2023/04/07 02:52:24;;;;;;;15.30;9.48;;;9.40;99.90;;;;;;5039574;28;20369;-43
2023/04/07 02:54:50;;;;;;;14.10;9.95;;;9.40;99.90;;;;;;5040956;28;20025;-42
2023/04/07 02:57:16;;;;;;;12.43;8.63;;;9.40;99.90;;;;;;5040715;28;20040;-43
2023/04/07 02:59:41;;;;;;;10.27;8.27;;;9.40;99.90;;;;;;5039488;28;20037;-43
2023/04/07 03:02:07;;;;;;;11.75;8.60;;;9.50;99.90;;;;;;5040284;28;20021;-43
2023/04/07 03:04:33;;;;;;;12.68;8.10;;;9.50;99.90;;;;;;5040076;28;20824;-43
2023/04/07 03:06:58;;;;;;;13.32;8.63;;;9.50;99.90;;;;;;5039976;28;20021;-43
2023/04/07 03:09:24;;;;;;;12.88;8.45;;;9.50;99.90;;;;;;5040823;28;20017;-43
2023/04/07 03:11:49;;;;;;;10.50;8.27;;;9.50;99.90;;;;;;5041119;28;20028;-43
2023/04/07 03:14:15;;;;;;;12.07;8.35;;;9.50;99.90;;;;;;5039765;28;20036;-44
2023/04/07 03:16:41;;;;;;;11.13;9.20;;;9.50;99.90;;;;;;5040352;28;20041;-43
2023/04/07 03:19:07;;;;;;;9.82;7.90;;;9.50;99.90;;;;;;5040472;28;20017;-43
2023/04/07 03:21:33;;;;;;;10.30;7.65;;;9.50;99.90;;;;;;5040119;28;20121;-43
2023/04/07 03:23:59;;;;;;;9.98;7.30;;;9.50;99.90;;;;;;5041097;28;20021;-43
2023/04/07 03:26:25;;;;;;;14.43;9.52;;;9.60;99.90;;;;;;5040678;28;20369;-43
2023/04/07 03:28:50;;;;;;;12.25;9.20;;;9.60;99.90;;;;;;5040008;28;20790;-43
2023/04/07 03:31:16;;;;;;;15.98;9.60;;;9.50;99.90;;;;;;5041463;28;20029;-43
2023/04/07 03:33:44;;;;;;;13.00;9.35;;;9.50;99.90;;;;;;5040165;28;20040;-43
2023/04/07 03:36:10;;;;;;;11.70;8.57;;;9.50;99.90;;;;;;5039787;28;20037;-43
2023/04/07 03:38:35;;;;;;;10.23;8.20;;;9.50;99.90;;;;;;5040517;28;20025;-43
2023/04/07 03:41:01;;;;;;;10.90;7.78;;;9.50;99.90;;;;;;5040175;28;20033;-43
2023/04/07 03:43:26;;;;;;;10.70;7.97;;;9.60;99.90;;;;;;5038826;28;20025;-42
2023/04/07 03:45:52;;;;;;;11.32;7.70;;;9.60;99.90;;;;;;5039422;28;20028;-43
2023/04/07 03:48:18;;;;;;;11.32;7.90;;;9.60;99.90;;;;;;5039404;28;20482;-43
2023/04/07 03:50:45;;;;;;;9.73;7.72;;;9.60;99.90;;;;;;5039928;28;20025;-43
2023/04/07 03:53:13;;;;;;;13.13;9.15;;;9.60;99.90;;;;;;5040196;28;20469;-43
2023/04/07 03:55:39;;;;;;;13.32;9.07;;;9.60;99.90;;;;;;5039218;28;20111;-43
2023/04/07 03:58:04;;;;;;;12.55;8.82;;;9.60;99.90;;;;;;5039371;28;20314;-43
2023/04/07 04:00:32;;;;;;;13.95;9.18;;;9.70;99.90;;;;;;5041850;28;20029;-43
2023/04/07 04:02:58;;;;;;;13.35;9.95;;;9.60;99.90;;;;;;5042799;28;20215;-43
2023/04/07 04:05:23;;;;;;;15.95;9.80;;;9.70;99.90;;;;;;5043514;28;20103;-43
2023/04/07 04:07:50;;;;;;;12.85;9.30;;;9.70;99.90;;;;;;5043924;28;20641;-43
2023/04/07 04:10:15;;;;;;;13.05;9.27;;;9.70;99.90;;;;;;5042921;28;20075;-43
2023/04/07 04:12:41;;;;;;;12.82;9.57;;;9.70;99.90;;;;;;5043587;28;20662;-43
2023/04/07 04:15:07;;;;;;;13.45;9.85;;;9.70;99.90;;;;;;5043766;28;20041;-42
2023/04/07 04:17:33;;;;;;;11.70;9.23;;;9.70;99.90;;;;;;5043186;28;20037;-43
2023/04/07 04:19:58;;;;;;;10.98;9.10;;;9.60;99.90;;;;;;5043080;28;20033;-43
2023/04/07 04:22:24;;;;;;;11.63;8.55;;;9.60;99.90;;;;;;5043046;28;20033;-43
2023/04/07 04:24:49;;;;;;;12.32;8.55;;;9.70;99.90;;;;;;5042162;28;20037;-44
2023/04/07 04:27:15;;;;;;;11.27;8.32;;;9.60;99.90;;;;;;5043382;28;20031;-44
2023/04/07 04:29:40;;;;;;;11.40;8.82;;;9.70;99.90;;;;;;5043280;28;20051;-42
2023/04/07 04:32:06;;;;;;;11.55;7.93;;;9.60;99.90;;;;;;5042905;28;20029;-43
2023/04/07 04:34:31;;;;;;;13.57;8.55;;;9.60;99.90;;;;;;5042827;28;20025;-43
2023/04/07 04:37:00;;;;;;;10.82;8.10;;;9.60;99.90;;;;;;5043276;28;20136;-43
2023/04/07 04:39:25;;;;;;;11.43;8.02;;;9.70;99.90;;;;;;5042593;28;20017;-43
2023/04/07 04:41:51;;;;;;;8.80;7.55;;;9.60;99.90;;;;;;5043794;28;20021;-43
2023/04/07 04:44:16;;;;;;;10.05;8.00;;;9.70;99.90;;;;;;5043362;28;20036;-43
2023/04/07 04:46:42;;;;;;;12.25;8.10;;;9.70;99.90;;;;;;5041557;28;20037;-43
2023/04/07 04:49:07;;;;;;;11.20;8.35;;;9.70;99.90;;;;;;5042729;28;20079;-43
2023/04/07 04:51:33;;;;;;;11.32;8.02;;;9.60;99.90;;;;;;5041187;28;20053;-43
2023/04/07 04:53:59;;;;;;;10.57;7.80;;;9.70;99.90;;;;;;5042605;28;20053;-43
2023/04/07 04:56:27;;;;;;;14.27;8.57;;;9.70;99.90;;;;;;5042381;28;20082;-43
2023/04/07 04:58:53;;;;;;;13.15;8.88;;;9.70;99.90;;;;;;5042449;28;20051;-43
2023/04/07 05:01:19;;;;;;;11.10;8.82;;;9.70;99.90;;;;;;5043214;28;20756;-43
2023/04/07 05:03:44;;;;;;;10.38;7.70;;;9.70;99.90;;;;;;5043263;28;20040;-43
2023/04/07 05:06:10;;;;;;;10.27;8.05;;;9.70;99.90;;;;;;5041413;28;20025;-43
2023/04/07 05:08:35;;;;;;;15.00;8.38;;;9.70;99.90;;;;;;5042136;28;20032;-43
2023/04/07 05:11:01;;;;;;;15.50;8.88;;;9.70;99.90;;;;;;5041979;28;20112;-43
2023/04/07 05:13:29;;;;;;;14.55;7.85;;;9.70;99.90;;;;;;5040761;28;20174;-43
2023/04/07 05:15:55;;;;;;;11.75;8.00;;;9.70;99.90;;;;;;5042014;28;20037;-43
2023/04/07 05:18:20;;;;;;;11.00;8.55;;;9.70;99.90;;;;;;5042525;28;20031;-43
2023/04/07 05:20:48;;;;;;;12.77;7.80;;;9.60;99.90;;;;;;5041391;28;20020;-43
2023/04/07 05:23:14;;;;;;;10.82;7.80;;;9.60;99.90;;;;;;5041723;28;20021;-42
2023/04/07 05:25:40;;;;;;;10.10;6.95;;;9.60;99.90;;;;;;5042228;28;20036;-44
2023/04/07 05:28:05;;;;;;;10.32;8.05;;;9.60;99.90;;;;;;5041247;28;20025;-43
2023/04/07 05:30:31;;;;;;;12.13;7.55;;;9.60;99.90;;;;;;5042245;28;20749;-43
2023/04/07 05:32:56;;;;;;;11.85;7.18;;;9.60;99.90;;;;;;5042364;28;20029;-42
2023/04/07 05:35:22;;;;;;;10.88;7.20;;;9.60;99.90;;;;;;5041684;28;20083;-43
2023/04/07 05:37:48;;;;;;;9.05;6.95;;;9.60;99.90;;;;;;5042041;28;20024;-41
2023/04/07 05:40:14;;;;;;;11.07;7.05;;;9.70;99.90;;;;;;5043061;28;20056;-43
2023/04/07 05:42:40;;;;;;;11.90;7.40;;;9.70;99.90;;;;;;5041537;28;20087;-44
2023/04/07 05:45:06;;;;;;;10.65;6.45;;;9.70;99.90;;;;;;5042491;28;20025;-43
2023/04/07 05:47:32;;;;;;;12.38;7.00;;;9.70;99.90;;;;;;5041032;28;20049;-43
2023/04/07 05:49:57;;;;;;;14.05;7.05;;;9.70;99.90;;;;;;5042004;28;20350;-43
2023/04/07 05:52:23;;;;;;;17.50;7.35;;;9.70;99.90;;;;;;5041977;28;20479;-44
2023/04/07 05:54:48;;;;;;;9.75;6.80;;;9.70;99.90;;;;;;5041035;28;20039;-43
2023/04/07 05:57:14;;;;;;;9.00;7.00;;;9.70;99.90;;;;;;5041766;28;20021;-43
2023/04/07 05:59:40;;;;;;;11.20;7.60;;;9.70;99.90;;;;;;5041385;28;20473;-43
2023/04/07 06:02:06;;;;;;;10.05;7.22;;;9.70;99.90;;;;;;5041435;28;20031;-43
2023/04/07 06:04:34;;;;;;;14.20;7.53;;;9.80;99.90;;;;;;5041884;28;20063;-43
2023/04/07 06:07:00;;;;;;;11.30;7.28;;;9.70;99.90;;;;;;5041467;28;20047;-44
2023/04/07 06:09:25;;;;;;;8.07;6.63;;;9.80;99.90;;;;;;5040171;28;20028;-43
2023/04/07 06:11:51;;;;;;;9.43;7.40;;;9.70;99.90;;;;;;5040932;28;20025;-43
2023/04/07 06:14:16;;;;;;;9.02;6.70;;;9.80;99.90;;;;;;5040558;28;20025;-42
2023/04/07 06:16:42;;;;;;;9.65;7.10;;;9.80;99.90;;;;;;5040196;28;20674;-43
2023/04/07 06:19:08;;;;;;;8.27;6.47;;;9.80;99.90;;;;;;5041091;28;20136;-43
2023/04/07 06:21:33;;;;;;;13.90;8.40;;;9.80;99.90;;;;;;5041765;28;20123;-43
2023/04/07 06:23:59;;;;;;;13.10;7.57;;;9.80;99.90;;;;;;5039636;28;20025;-43
2023/04/07 06:26:26;;;;;;;12.55;8.20;;;9.80;99.90;;;;;;5041457;28;20112;-43
2023/04/07 06:28:52;;;;;;;9.30;7.40;;;9.80;99.90;;;;;;5040862;28;20048;-43
2023/04/07 06:31:17;;;;;;;9.90;7.80;;;9.80;99.90;;;;;;5041021;28;20121;-43
2023/04/07 06:33:43;;;;;;;13.15;7.82;;;9.80;99.90;;;;;;5040949;28;20075;-43
2023/04/07 06:36:15;;;;;;;10.50;7.15;;;9.80;99.90;;;;;;5040662;28;20036;-42
2023/04/07 06:38:53;;;;;;;9.52;7.03;;;9.80;99.90;;;;;;5040382;28;20021;-43
2023/04/07 06:41:18;;;;;;;7.18;5.95;;;9.80;99.90;;;;;;5040916;28;20482;-43
2023/04/07 06:43:46;;;;;;;11.85;7.45;;;9.80;99.90;;;;;;5040450;28;20486;-43
2023/04/07 06:46:12;;;;;;;9.77;6.80;;;9.80;99.90;;;;;;5039666;28;20048;-43
2023/04/07 06:48:37;;;;;;;8.65;6.00;;;9.80;99.90;;;;;;5040277;28;20025;-43
2023/04/07 06:51:03;;;;;;;7.68;5.50;;;9.80;99.90;;;;;;5039851;28;20693;-43
2023/04/07 06:53:29;;;;;;;8.85;5.47;;;9.80;99.90;;;;;;5040580;28;20079;-43
2023/04/07 06:56:05;;;;;;;6.93;5.07;;;9.80;99.90;;;;;;5036913;28;20144;-43
2023/04/07 06:58:31;;;;;;;6.72;4.30;;;9.90;99.90;;;;;;5039608;28;20048;-43
2023/04/07 07:00:57;;;;;;;7.95;6.05;;;9.90;99.90;;;;;;5040188;28;20120;-43
2023/04/07 07:03:22;;;;;;;7.03;4.93;;;9.90;99.90;;;;;;5041031;28;20033;-43
2023/04/07 07:05:48;;;;;;;7.93;4.97;;;9.90;99.90;;;;;;5039724;28;20036;-43
2023/04/07 07:08:13;;;;;;;5.15;3.80;;;10.00;99.90;;;;;;5040764;28;20489;-43
2023/04/07 07:10:39;;;;;;;6.90;4.18;;;10.00;99.90;;;;;;5040129;28;20040;-44
2023/04/07 07:13:05;;;;;;;7.13;3.83;;;10.10;99.90;;;;;;5039265;28;20032;-44
2023/04/07 07:15:30;;;;;;;4.68;3.83;;;10.20;99.90;;;;;;5039714;28;20132;-43
2023/04/07 07:17:56;;;;;;;5.32;3.92;;;10.20;99.90;;;;;;5040862;28;20123;-43
2023/04/07 07:20:22;;;;;;;5.65;3.58;;;10.20;99.90;;;;;;5039535;28;20027;-43
2023/04/07 07:22:48;;;;;;;5.53;3.40;;;10.30;99.90;;;;;;5040259;28;20032;-43
2023/04/07 07:25:13;;;;;;;7.35;4.60;;;10.30;99.90;;;;;;5039959;28;20553;-43
2023/04/07 07:27:39;;;;;;;6.78;3.58;;;10.40;99.90;;;;;;5038948;28;20032;-43
2023/04/07 07:30:05;;;;;;;4.47;3.50;;;10.40;99.90;;;;;;5039911;28;20021;-43
2023/04/07 07:32:31;;;;;;;4.13;3.70;;;10.40;99.90;;;;;;5039974;28;20025;-43
2023/04/07 07:34:59;;;;;;;3.35;2.92;;;10.40;99.90;;;;;;5039132;28;20485;-44
2023/04/07 07:37:25;;;;;;;5.60;3.45;;;10.50;99.90;;;;;;5043638;28;20052;-43
2023/04/07 07:40:03;;;;;;;5.22;3.50;;;10.60;99.90;;;;;;5043975;28;20968;-44
2023/04/07 07:42:30;;;;;;;7.35;4.82;;;10.60;99.90;;;;;;5043393;28;20530;-44
2023/04/07 07:44:56;;;;;;;4.88;3.42;;;10.60;99.90;;;;;;5044040;28;20041;-44
2023/04/07 07:47:22;;;;;;;4.80;3.28;;;10.60;99.90;;;;;;5043283;28;20067;-43
2023/04/07 07:49:47;;;;;;;3.05;2.70;;;10.60;99.90;;;;;;5044356;28;20103;-43
2023/04/07 07:52:13;;;;;;;3.22;2.47;;;10.70;99.90;;;;;;5044031;28;20102;-43
2023/04/07 07:54:39;;;;;;;5.00;3.03;;;10.70;99.90;;;;;;5043081;28;20033;-44
2023/04/07 07:57:05;;;;;;;3.42;2.47;;;10.80;99.90;;;;;;5044008;28;20036;-43
2023/04/07 07:59:30;;;;;;;4.45;3.70;;;10.90;99.90;;;;;;5043409;28;20128;-43
2023/04/07 08:01:56;;;;;;;4.97;3.22;;;10.80;99.90;;;;;;5042620;28;20226;-43
2023/04/07 08:04:22;;;;;;;4.70;3.20;;;10.80;99.90;;;;;;5044584;28;20484;-43
2023/04/07 08:06:49;;;;;;;3.75;3.17;;;10.80;99.90;;;;;;5043432;28;20012;-45
2023/04/07 08:09:15;;;;;;;5.20;3.38;;;10.70;99.90;;;;;;5043577;28;20029;-44
2023/04/07 08:11:41;;;;;;;4.95;3.30;;;10.80;99.90;;;;;;5043704;28;20017;-43
2023/04/07 08:14:06;;;;;;;5.15;3.55;;;10.80;99.90;;;;;;5043272;28;20076;-43
2023/04/07 08:16:35;;;;;;;5.70;3.42;;;10.80;99.90;;;;;;5042705;28;20143;-42
2023/04/07 08:19:00;;;;;;;5.60;3.70;;;10.80;99.90;;;;;;5042888;28;20476;-44
2023/04/07 08:21:27;;;;;;;4.35;3.20;;;10.80;99.90;;;;;;5043413;28;20064;-43
2023/04/07 08:23:53;;;;;;;4.20;3.05;;;10.80;99.90;;;;;;5042786;28;20028;-43
2023/04/07 08:26:20;;;;;;;5.60;3.35;;;10.80;99.90;;;;;;5043350;28;20032;-44
2023/04/07 08:28:46;;;;;;;5.00;3.20;;;10.90;99.90;;;;;;5042385;28;20425;-44
2023/04/07 08:31:14;;;;;;;4.18;3.05;;;10.90;99.90;;;;;;5042909;28;20128;-43
2023/04/07 08:33:39;;;;;;;4.68;2.83;;;10.90;99.90;;;;;;5042096;28;20133;-43
2023/04/07 08:36:05;;;;;;;5.45;3.22;;;10.90;99.90;;;;;;5043009;28;20037;-43
2023/04/07 08:38:31;;;;;;;5.47;3.30;;;11.00;99.90;;;;;;5042516;28;20032;-43
2023/04/07 08:41:11;;;;;;;5.00;3.50;;;11.10;99.90;;;;;;5042981;28;20755;-44
2023/04/07 08:43:42;;;;;;;4.68;3.28;;;11.30;99.90;;;;;;5041898;28;20028;-44
2023/04/07 08:46:08;;;;;;;5.03;2.83;;;11.30;99.90;;;;;;5042858;28;20021;-44
2023/04/07 08:48:36;;;;;;;5.85;3.70;;;11.20;99.90;;;;;;5043230;28;20036;-43
2023/04/07 08:51:05;;;;;;;4.07;3.30;;;11.20;99.90;;;;;;5042542;28;20041;-44
2023/04/07 08:53:51;;;;;;;4.50;2.83;;;11.20;99.90;;;;;;5042431;28;20177;-44
2023/04/07 08:56:17;;;;;;;6.72;3.85;;;11.20;99.90;;;;;;5043399;28;20072;-44
2023/04/07 08:58:47;;;;;;;5.10;3.65;;;11.20;99.90;;;;;;5042029;28;20044;-44
2023/04/07 09:01:15;;;;;;;6.50;3.80;;;11.10;99.90;;;;;;5043017;28;20083;-44
2023/04/07 09:03:43;;;;;;;6.07;3.60;;;11.00;99.90;;;;;;5042422;28;20444;-43
2023/04/07 09:06:12;;;;;;;6.90;4.05;;;11.00;99.90;;;;;;5042547;28;20029;-43
2023/04/07 09:08:37;;;;;;;6.43;3.80;;;11.00;99.90;;;;;;5042289;28;20030;-44
2023/04/07 09:11:03;;;;;;;7.43;4.40;;;11.10;99.90;;;;;;5042612;28;20029;-43
2023/04/07 09:13:30;;;;;;;4.97;4.05;;;11.10;99.90;;;;;;5041472;28;20027;-44
2023/04/07 09:15:56;;;;;;;5.63;4.00;;;11.10;99.90;;;;;;5042198;28;20089;-44
2023/04/07 09:18:22;;;;;;;5.70;4.03;;;11.10;99.90;;;;;;5042603;28;20023;-44
2023/04/07 09:20:55;;;;;;;6.82;3.60;;;11.10;99.90;;;;;;5041453;28;20409;-44
2023/04/07 09:23:31;;;;;;;;;;;11.10;99.90;;;;;;5043720;28;20091;-44
2023/04/07 09:25:58;;;;;;;3.22;2.60;;;11.20;99.90;;;;;;5038325;28;19916;-43
2023/04/07 09:28:25;;;;;;;6.28;3.60;;;11.20;99.90;;;;;;5041847;28;20049;-42
2023/04/07 09:30:53;;;;;;;5.53;3.55;;;11.20;99.90;;;;;;5041377;28;20032;-43
2023/04/07 09:33:27;;;;;;;4.47;3.28;;;11.20;99.90;;;;;;5041200;28;20385;-44
2023/04/07 09:35:53;;;;;;;5.97;3.50;;;11.30;99.90;;;;;;5041640;28;20845;-44
2023/04/07 09:38:18;;;;;;;5.18;3.72;;;11.30;99.90;;;;;;5042757;28;20637;-44
2023/04/07 09:40:44;;;;;;;6.70;3.60;;;11.50;99.90;;;;;;5040561;28;20132;-44
2023/04/07 09:43:17;;;;;;;4.05;3.55;;;11.50;99.90;;;;;;5041558;28;20037;-44
2023/04/07 09:45:49;;;;;;;5.63;3.22;;;11.60;99.90;;;;;;5041500;28;20033;-44
2023/04/07 09:48:19;;;;;;;4.32;2.92;;;11.60;99.90;;;;;;5040501;28;20127;-43
2023/04/07 09:50:48;;;;;;;4.32;3.35;;;11.70;99.90;;;;;;5040868;28;20057;-43
2023/04/07 09:53:15;;;;;;;5.07;3.55;;;11.80;99.90;;;;;;5042196;28;20029;-44
2023/04/07 09:55:42;;;;;;;4.38;3.55;;;11.80;99.90;;;;;;5040394;28;20044;-44
2023/04/07 09:58:12;;;;;;;7.47;3.53;;;11.80;99.90;;;;;;5040864;28;20037;-43
2023/04/07 10:00:40;;;;;;;6.97;3.78;;;11.80;99.90;;;;;;5041658;28;20074;-44
2023/04/07 10:03:06;;;;;;;8.40;4.00;;;11.80;99.90;;;;;;5040662;28;20762;-44
2023/04/07 10:05:37;;;;;;;5.90;4.32;;;11.70;99.90;;;;;;5041107;28;20017;-44
2023/04/07 10:08:05;;;;;;;5.70;3.90;;;11.70;99.90;;;;;;5041303;28;20029;-44
2023/04/07 10:10:41;;;;;;;6.50;3.85;;;11.60;99.90;;;;;;5041843;28;20101;-45
2023/04/07 10:13:06;;;;;;;4.85;3.58;;;11.60;99.90;;;;;;5031632;28;20025;-44
2023/04/07 10:15:32;;;;;;;5.60;3.83;;;11.50;99.90;;;;;;5040813;28;20036;-44
2023/04/07 10:17:59;;;;;;;5.88;3.47;;;11.50;99.90;;;;;;5041021;28;20049;-43
2023/04/07 10:20:25;;;;;;;5.35;3.80;;;11.40;99.90;;;;;;5040810;28;20507;-44
2023/04/07 10:22:54;;;;;;;7.13;3.47;;;11.40;99.90;;;;;;5037281;28;20029;-43
2023/04/07 10:25:23;;;;;;;4.50;3.13;;;11.40;99.90;;;;;;5041426;28;20083;-42
2023/04/07 10:27:57;;;;;;;4.28;3.10;;;11.50;99.90;;;;;;5041245;28;20025;-41
2023/04/07 10:30:25;;;;;;;4.32;2.85;;;11.50;99.90;;;;;;5041034;28;20025;-44
2023/04/07 10:32:58;;;;;;;4.07;2.80;;;11.60;99.90;;;;;;5040325;28;20029;-43
2023/04/07 10:35:24;;;;;;;3.42;3.00;;;11.60;99.90;;;;;;5041240;28;20069;-43
2023/04/07 10:38:12;;;;;;;4.28;2.75;;;11.70;99.90;;;;;;5039983;28;20444;-43
2023/04/07 10:40:38;;;;;;;4.15;2.70;;;11.70;99.90;;;;;;5040733;28;20037;-44
2023/04/07 10:43:10;;;;;;;4.38;2.60;;;11.80;99.90;;;;;;5040594;28;20026;-44
2023/04/07 10:45:45;;;;;;;4.45;2.70;;;11.80;99.90;;;;;;5041532;28;20154;-44
2023/04/07 10:48:12;;;;;;;4.28;2.75;;;11.70;99.90;;;;;;5040866;28;20053;-44
2023/04/07 10:50:37;;;;;;;3.67;2.83;;;11.70;99.90;;;;;;5040522;28;20064;-42
2023/04/07 10:53:14;;;;;;;6.00;3.00;;;11.70;99.90;;;;;;5040214;28;20777;-43
2023/04/07 10:55:43;;;;;;;3.78;2.58;;;11.60;99.90;;;;;;5040441;28;20044;-43
2023/04/07 10:58:44;;;;;;;4.18;2.47;;;11.60;99.90;;;;;;5039293;28;20028;-43
2023/04/07 11:01:10;;;;;;;4.47;2.90;;;11.60;99.90;;;;;;5020684;28;20124;-43
2023/04/07 11:03:53;;;;;;;5.88;2.78;;;11.60;99.90;;;;;;5037080;28;20042;-44
2023/04/07 11:06:18;;;;;;;5.47;3.08;;;11.60;99.90;;;;;;5019645;28;20029;-44
2023/04/07 11:08:46;;;;;;;4.13;3.35;;;11.70;99.90;;;;;;5036692;28;20044;-43
2023/04/07 11:11:14;;;;;;;6.05;3.50;;;11.70;99.90;;;;;;5021018;28;20079;-44
2023/04/07 11:13:47;;;;;;;4.82;3.28;;;11.60;99.90;;;;;;5034786;28;20025;-43
2023/04/07 11:16:17;;;;;;;5.15;3.20;;;11.50;99.90;;;;;;5040181;28;20633;-44
2023/04/07 11:18:43;;;;;;;5.00;3.40;;;11.50;99.90;;;;;;5039291;28;20017;-43
2023/04/07 11:21:09;;;;;;;5.20;3.15;;;11.50;99.90;;;;;;5040898;28;20060;-43
2023/04/07 11:23:42;;;;;;;5.65;3.17;;;11.50;99.90;;;;;;5039934;28;20132;-43
2023/04/07 11:26:10;;;;;;;3.90;2.78;;;11.50;99.90;;;;;;5039199;28;20547;-43
2023/04/07 11:28:46;;;;;;;5.40;2.80;;;11.50;99.90;;;;;;5039670;28;20421;-43
2023/04/07 11:31:12;;;;;;;3.33;2.70;;;11.60;99.90;;;;;;5040219;28;20052;-43
2023/04/07 11:33:39;;;;;;;4.53;2.53;;;11.70;99.90;;;;;;5039596;28;20813;-43
2023/04/07 11:36:06;;;;;;;3.35;2.75;;;11.70;99.90;;;;;;5040147;28;20045;-43
2023/04/07 11:38:37;;;;;;;5.95;3.33;;;11.70;99.90;;;;;;5039842;28;20021;-43
2023/04/07 11:41:13;;;;;;;5.63;3.13;;;11.60;99.90;;;;;;5039725;28;20610;-43
2023/04/07 11:43:40;;;;;;;4.95;3.13;;;11.50;99.90;;;;;;5040153;28;20025;-43
2023/04/07 11:46:17;;;;;;;4.47;2.92;;;11.40;99.90;;;;;;5040376;28;20145;-44
2023/04/07 11:48:46;;;;;;;4.95;3.25;;;11.30;99.90;;;;;;5040083;28;20036;-44
2023/04/07 11:51:21;;;;;;;4.15;2.70;;;11.30;99.90;;;;;;5040694;28;20039;-43
2023/04/07 11:53:52;;;;;;;5.50;3.30;;;11.30;99.90;;;;;;5039028;28;20028;-45
2023/04/07 11:56:18;;;;;;;4.20;3.45;;;11.30;99.90;;;;;;5040518;28;20041;-43
2023/04/07 11:58:48;;;;;;;6.35;3.88;;;11.40;99.90;;;;;;5040088;28;20029;-43
2023/04/07 12:01:14;;;;;;;4.15;3.28;;;11.30;99.90;;;;;;5039713;28;20033;-44
2023/04/07 12:04:01;;;;;;;5.93;3.45;;;11.40;99.90;;;;;;5040169;28;20025;-43
2023/04/07 12:06:34;;;;;;;5.55;3.67;;;11.40;99.90;;;;;;5040484;28;20036;-44
2023/04/07 12:09:01;;;;;;;4.57;3.25;;;11.60;99.90;;;;;;5039740;28;20079;-44
2023/04/07 12:11:27;;;;;;;4.97;3.13;;;11.60;99.90;;;;;;5040231;28;20052;-44
2023/04/07 12:13:53;;;;;;;7.35;3.53;;;11.60;99.90;;;;;;5040790;28;20061;-44
2023/04/07 12:16:20;;;;;;;5.45;3.60;;;11.50;99.90;;;;;;5039461;28;20609;-44
2023/04/07 12:18:46;;;;;;;4.65;4.03;;;11.50;99.90;;;;;;5040193;28;20052;-44
2023/04/07 12:21:11;;;;;;;8.55;4.05;;;11.40;99.90;;;;;;5040481;28;20031;-43
2023/04/07 12:23:37;;;;;;;4.80;3.78;;;11.50;99.90;;;;;;5042780;28;20051;-43
2023/04/07 12:26:02;;;;;;;6.38;3.78;;;11.50;99.90;;;;;;5043114;28;20055;-43
2023/04/07 12:28:28;;;;;;;9.00;4.80;;;11.40;99.90;;;;;;5043884;28;20032;-43
2023/04/07 12:30:54;;;;;;;6.03;4.13;;;11.40;99.90;;;;;;5041474;28;20025;-43
2023/04/07 12:33:20;;;;;;;4.85;3.35;;;11.40;99.90;;;;;;5042741;28;20040;-43
2023/04/07 12:35:46;;;;;;;4.28;3.10;;;11.40;99.90;;;;;;5042408;28;20041;-44
2023/04/07 12:38:12;;;;;;;5.10;3.40;;;11.50;99.90;;;;;;5043570;28;20028;-44
2023/04/07 12:40:38;;;;;;;3.20;2.90;;;11.60;99.90;;;;;;5043579;28;20062;-43
2023/04/07 12:43:04;;;;;;;4.80;2.92;;;11.70;99.90;;;;;;5042891;28;20380;-44
2023/04/07 12:45:30;;;;;;;6.13;3.45;;;11.70;99.90;;;;;;5042962;28;20036;-44
2023/04/07 12:47:56;;;;;;;3.78;3.10;;;11.70;99.90;;;;;;5043288;28;20482;-44